createdAt,value
2022-08-26T00:04:23.895Z,100723.69
2022-08-26T00:09:27.010Z,100720.81
2022-08-26T00:14:31.016Z,100717.38
2022-08-26T00:19:33.662Z,100705.38
2022-08-26T00:24:36.244Z,100707.03
2022-08-26T00:29:38.731Z,100698.75
2022-08-26T00:34:41.787Z,100709.47
2022-08-26T00:39:44.185Z,100694.88
2022-08-26T00:44:48.508Z,100701.50
2022-08-26T00:49:53.299Z,100705.56
2022-08-26T00:55:01.451Z,100707.50
2022-08-26T01:00:10.286Z,100693.72
2022-08-26T01:05:13.058Z,100702.31
2022-08-26T01:10:19.304Z,100708.31
2022-08-26T01:15:25.095Z,100701.31
2022-08-26T01:20:49.041Z,100696.25
2022-08-26T01:25:55.238Z,100704.84
2022-08-26T01:30:58.799Z,100701.13
2022-08-26T01:36:01.554Z,100703.22
2022-08-26T01:41:16.067Z,100691.72
2022-08-26T01:46:19.728Z,100706.66
2022-08-26T01:51:23.461Z,100695.31
2022-08-26T01:56:25.899Z,100699.22
2022-08-26T02:01:36.324Z,100710.72
2022-08-26T02:06:39.579Z,100701.50
2022-08-26T02:11:42.259Z,100687.97
2022-08-26T02:16:46.741Z,100694.94
2022-08-26T02:21:51.222Z,100696.56
2022-08-26T02:26:54.767Z,100688.59
2022-08-26T02:31:57.285Z,100682.53
2022-08-26T02:37:01.307Z,100687.38
2022-08-26T02:42:05.498Z,100691.91
2022-08-26T02:47:08.775Z,100680.75
2022-08-26T02:52:12.662Z,100684.13
2022-08-26T02:57:15.281Z,100679.75
2022-08-26T03:02:18.053Z,100678.56
2022-08-26T03:07:20.696Z,100678.28
2022-08-26T03:12:23.800Z,100680.09
2022-08-26T03:17:28.266Z,100673.09
2022-08-26T03:22:30.927Z,100669.06
2022-08-26T03:27:33.689Z,100677.84
2022-08-26T03:32:36.075Z,100660.75
2022-08-26T03:37:40.368Z,100676.34
2022-08-26T03:42:44.392Z,100673.72
2022-08-26T03:47:48.182Z,100669.38
2022-08-26T03:52:53.224Z,100664.34
2022-08-26T03:57:57.089Z,100669.88
2022-08-26T04:03:00.203Z,100664.50
2022-08-26T04:08:02.906Z,100678.16
2022-08-26T04:13:05.307Z,100678.16
2022-08-26T04:18:07.897Z,100644.72
2022-08-26T04:23:10.517Z,100664.81
2022-08-26T04:28:14.234Z,100663.84
2022-08-26T04:33:16.811Z,100668.25
2022-08-26T04:38:34.983Z,100666.81
2022-08-26T04:43:38.250Z,100667.25
2022-08-26T04:48:41.446Z,100676.69
2022-08-26T04:53:44.326Z,100671.81
2022-08-26T04:58:47.251Z,100675.13
2022-08-26T05:03:50.021Z,100668.56
2022-08-26T05:08:54.328Z,100678.28
2022-08-26T05:14:01.639Z,100678.09
2022-08-26T05:19:07.119Z,100675.25
2022-08-26T05:24:14.003Z,100675.63
2022-08-26T05:29:17.309Z,100662.03
2022-08-26T05:34:23.929Z,100672.44
2022-08-26T05:39:33.881Z,100666.69
2022-08-26T05:44:53.705Z,100669.72
2022-08-26T05:49:58.758Z,100659.13
2022-08-26T05:55:01.706Z,100666.50
2022-08-26T06:00:05.649Z,100669.59
2022-08-26T06:05:14.639Z,100665.00
2022-08-26T06:10:33.606Z,100658.53
2022-08-26T06:15:40.715Z,100655.25
2022-08-26T06:20:56.857Z,100658.78
2022-08-26T06:26:00.251Z,100654.19
2022-08-26T06:31:03.441Z,100662.44
2022-08-26T06:36:06.983Z,100670.50
2022-08-26T06:41:12.185Z,100665.94
2022-08-26T06:46:19.806Z,100667.88
2022-08-26T06:51:26.204Z,100666.22
2022-08-26T06:56:41.038Z,100678.22
2022-08-26T07:01:45.116Z,100666.47
2022-08-26T07:06:49.465Z,100669.25
2022-08-26T07:11:52.561Z,100669.84
2022-08-26T07:16:55.653Z,100676.59
2022-08-26T07:21:58.462Z,100674.88
2022-08-26T07:27:05.799Z,100678.94
2022-08-26T07:32:09.959Z,100672.38
2022-08-26T07:37:12.447Z,100672.81
2022-08-26T07:42:16.923Z,100660.66
2022-08-26T07:47:25.840Z,100650.97
2022-08-26T07:52:30.498Z,100661.16
2022-08-26T07:57:34.692Z,100657.34
2022-08-26T08:02:37.303Z,100665.53
2022-08-26T08:07:44.880Z,100669.69
2022-08-26T08:12:48.369Z,100660.19
2022-08-26T08:17:51.689Z,100667.84
2022-08-26T08:22:55.162Z,100666.66
2022-08-26T08:27:57.672Z,100660.78
2022-08-26T08:33:00.565Z,100656.94
2022-08-26T08:38:04.178Z,100658.91
2022-08-26T08:43:28.357Z,100657.06
2022-08-26T08:48:34.706Z,100663.03
2022-08-26T08:53:41.793Z,100653.53
2022-08-26T08:59:08.839Z,100653.50
2022-08-26T09:04:42.647Z,100650.81
2022-08-26T09:10:08.140Z,100646.34
2022-08-26T09:15:21.667Z,100644.78
2022-08-26T09:20:41.908Z,100647.97
2022-08-26T09:25:49.610Z,100635.56
2022-08-26T09:31:10.628Z,100638.78
2022-08-26T09:36:24.963Z,100635.97
2022-08-26T09:41:31.981Z,100625.53
2022-08-26T09:46:34.646Z,100625.09
2022-08-26T09:51:37.654Z,100620.22
2022-08-26T09:56:40.537Z,100625.84
2022-08-26T10:01:44.934Z,100620.69
2022-08-26T10:06:57.062Z,100616.28
2022-08-26T10:12:04.783Z,100604.97
2022-08-26T10:17:15.849Z,100615.34
2022-08-26T10:22:36.008Z,100613.41
2022-08-26T10:27:53.413Z,100609.38
2022-08-26T10:33:06.243Z,100608.16
2022-08-26T10:38:12.855Z,100607.16
2022-08-26T10:43:25.722Z,100597.72
2022-08-26T10:48:38.505Z,100599.66
2022-08-26T10:53:51.617Z,100598.41
2022-08-26T10:58:59.517Z,100593.13
2022-08-26T11:04:14.132Z,100588.63
2022-08-26T11:09:47.578Z,100586.94
2022-08-26T11:14:56.115Z,100581.28
2022-08-26T11:20:09.159Z,100580.78
2022-08-26T11:25:18.714Z,100575.13
2022-08-26T11:30:21.261Z,100571.25
2022-08-26T11:35:37.281Z,100574.19
2022-08-26T11:40:42.106Z,100563.09
2022-08-26T11:45:59.703Z,100560.28
2022-08-26T11:51:07.338Z,100553.19
2022-08-26T11:56:28.877Z,100554.06
2022-08-26T12:01:36.547Z,100550.47
2022-08-26T12:06:46.667Z,100544.97
2022-08-26T12:11:49.199Z,100536.78
2022-08-26T12:16:56.300Z,100535.28
2022-08-26T12:22:21.438Z,100539.66
2022-08-26T12:27:26.707Z,100527.22
2022-08-26T12:32:35.188Z,100526.38
2022-08-26T12:37:41.172Z,100528.88
2022-08-26T12:42:47.017Z,100515.88
2022-08-26T12:47:55.931Z,100512.56
2022-08-26T12:53:09.934Z,100507.00
2022-08-26T12:58:16.548Z,100496.69
2022-08-26T13:03:46.227Z,100495.69
2022-08-26T13:08:54.361Z,100490.38
2022-08-26T13:14:00.502Z,100481.66
2022-08-26T13:19:10.209Z,100488.09
2022-08-26T13:24:21.144Z,100482.19
2022-08-26T13:29:23.875Z,100468.63
2022-08-26T13:34:27.980Z,100466.47
2022-08-26T13:39:30.584Z,100466.66
2022-08-26T13:44:33.719Z,100467.03
2022-08-26T13:49:36.625Z,100464.88
2022-08-26T13:54:39.481Z,100455.72
2022-08-26T13:59:42.016Z,100456.47
2022-08-26T14:04:44.631Z,100447.50
2022-08-26T14:09:47.354Z,100448.94
2022-08-26T14:14:50.274Z,100440.28
2022-08-26T14:19:53.898Z,100440.66
2022-08-26T14:24:56.859Z,100425.81
2022-08-26T14:29:59.704Z,100425.81
2022-08-26T14:35:02.780Z,100420.75
2022-08-26T14:40:06.469Z,100419.88
2022-08-26T14:45:11.587Z,100418.00
2022-08-26T14:50:17.481Z,100418.28
2022-08-26T14:55:22.875Z,100418.78
2022-08-26T15:00:25.893Z,100410.22
2022-08-26T15:05:28.523Z,100393.78
2022-08-26T15:10:31.140Z,100392.63
2022-08-26T15:15:34.949Z,100399.34
2022-08-26T15:20:37.657Z,100394.78
2022-08-26T15:25:40.267Z,100390.31
2022-08-26T15:30:43.380Z,100386.09
2022-08-26T15:35:46.146Z,100381.41
2022-08-26T15:40:48.796Z,100375.94
2022-08-26T15:45:51.484Z,100381.22
2022-08-26T15:50:55.168Z,100376.97
2022-08-26T15:55:59.525Z,100380.91
2022-08-26T16:01:02.276Z,100370.63
2022-08-26T16:06:04.956Z,100379.47
2022-08-26T16:11:07.597Z,100372.38
2022-08-26T16:16:10.299Z,100369.31
2022-08-26T16:21:17.908Z,100362.09
2022-08-26T16:26:30.110Z,100367.81
2022-08-26T16:31:33.058Z,100361.59
2022-08-26T16:36:38.078Z,100366.13
2022-08-26T16:41:40.795Z,100359.84
2022-08-26T16:46:43.372Z,100356.38
2022-08-26T16:51:45.948Z,100353.25
2022-08-26T16:56:48.437Z,100356.59
2022-08-26T17:01:51.139Z,100354.69
2022-08-26T17:06:53.792Z,100357.91
2022-08-26T17:11:56.489Z,100360.25
2022-08-26T17:16:59.508Z,100364.41
2022-08-26T17:22:02.087Z,100367.31
2022-08-26T17:27:08.646Z,100363.88
2022-08-26T17:32:11.554Z,100371.09
2022-08-26T17:37:14.251Z,100361.53
2022-08-26T17:42:16.712Z,100376.69
2022-08-26T17:47:19.152Z,100369.75
2022-08-26T17:52:21.741Z,100381.03
2022-08-26T17:57:25.231Z,100381.69
2022-08-26T18:07:33.705Z,100387.75
2022-08-26T18:12:46.462Z,100397.03
2022-08-26T18:17:49.527Z,100389.69
2022-08-26T18:22:54.967Z,100380.09
2022-08-26T18:27:57.337Z,100403.06
2022-08-26T18:32:59.817Z,100398.53
2022-08-26T18:38:10.514Z,100388.41
2022-08-26T18:43:13.962Z,100396.81
2022-08-26T18:48:16.877Z,100394.56
2022-08-26T18:53:19.434Z,100402.91
2022-08-26T18:58:22.558Z,100405.53
2022-08-26T19:03:25.337Z,100402.41
2022-08-26T19:08:28.080Z,100408.19
2022-08-26T19:13:30.636Z,100404.34
2022-08-26T19:18:33.109Z,100412.25
2022-08-26T19:23:37.065Z,100404.50
2022-08-26T19:28:40.928Z,100412.97
2022-08-26T19:33:45.522Z,100403.13
2022-08-26T19:38:48.466Z,100415.22
2022-08-26T19:43:52.370Z,100419.19
2022-08-26T19:48:55.828Z,100415.38
2022-08-26T19:53:59.925Z,100409.94
2022-08-26T19:59:02.479Z,100403.47
2022-08-26T20:04:05.060Z,100420.91
2022-08-26T20:09:10.526Z,100405.59
2022-08-26T20:14:12.992Z,100408.75
2022-08-26T20:19:52.231Z,100404.72
2022-08-26T20:24:54.705Z,100409.91
2022-08-26T20:29:58.142Z,100412.53
2022-08-26T20:35:01.765Z,100406.44
2022-08-26T20:40:06.610Z,100411.19
2022-08-26T20:45:09.821Z,100411.47
2022-08-26T20:50:12.522Z,100409.25
2022-08-26T20:55:15.109Z,100406.69
2022-08-26T21:00:18.481Z,100413.25
2022-08-26T21:05:24.543Z,100398.63
2022-08-26T21:10:30.528Z,100403.88
2022-08-26T21:15:33.414Z,100402.47
2022-08-26T21:20:37.400Z,100404.00
2022-08-26T21:25:40.637Z,100407.44
2022-08-26T21:30:43.461Z,100403.78
2022-08-26T21:35:56.190Z,100404.34
2022-08-26T21:41:14.274Z,100412.38
2022-08-26T21:46:22.366Z,100411.91
2022-08-26T21:51:27.971Z,100413.59
2022-08-26T21:56:32.261Z,100415.66
2022-08-26T22:01:35.167Z,100414.41
2022-08-26T22:06:44.475Z,100418.66
2022-08-26T22:11:47.554Z,100411.75
2022-08-26T22:16:51.071Z,100410.81
2022-08-26T22:21:55.189Z,100406.66
2022-08-26T22:26:57.696Z,100423.59
2022-08-26T22:32:00.508Z,100405.06
2022-08-26T22:37:03.443Z,100417.69
2022-08-26T22:42:06.015Z,100411.03
2022-08-26T22:47:08.510Z,100362.31
2022-08-26T22:52:11.051Z,100409.69
2022-08-26T22:57:13.661Z,100402.56
2022-08-26T23:02:16.311Z,100396.34
2022-08-26T23:07:19.227Z,100391.97
2022-08-26T23:12:22.219Z,100383.91
2022-08-26T23:17:24.819Z,100379.59
2022-08-26T23:22:28.468Z,100383.94
2022-08-26T23:27:30.888Z,100387.41
2022-08-26T23:32:33.528Z,100381.19
2022-08-26T23:37:38.934Z,100371.44
2022-08-26T23:42:44.524Z,100371.75
2022-08-26T23:47:47.658Z,100367.78
2022-08-26T23:53:05.885Z,100370.09
2022-08-26T23:58:08.447Z,100357.13
